Portola Hills, California
Current Conditions -  °F | °C
As of 9:53 AM on Wednesday 28 Jan 2015 (Local Time) from KSNA Reporting Station
Overcast Overcast  
Wind Chill: 67°   Ceiling: 25000
Heat Index: 67°   Visibility: 10mi
Dew Point: 48°   Wind: 0mph
Humidity: 51%   Direction: NA
Pressure: 30.12"   Gusts: NA
Location:  33.6153°N, 117.532°W
Report Text: KSNA 281753Z 00000KT 10SM SCT200 OVC250 19/09 A3012 RMK AO2 SLP201 T01940089 10194 20128 58002
Loading
Personal Weather Stations






























Interactive Weather Map New forecast layout! Learn more

10-Day Weather Forecast

Advertisements
Track Severe Weather on mobile